sensor_id;sensor_type;location;lat;lon;timestamp;temperature;humidity
39983;DHT22;25670;44.782;10.356;2024-03-23T00:53:56;12.50;1.00
39983;DHT22;25670;44.782;10.356;2024-03-23T00:58:50;10.80;1.00
39983;DHT22;25670;44.782;10.356;2024-03-23T01:01:16;10.70;1.00
39983;DHT22;25670;44.782;10.356;2024-03-23T01:03:42;10.60;1.00
39983;DHT22;25670;44.782;10.356;2024-03-23T01:06:08;10.60;1.00
39983;DHT22;25670;44.782;10.356;2024-03-23T01:08:34;10.60;1.00
39983;DHT22;25670;44.782;10.356;2024-03-23T01:11:02;10.60;1.00
39983;DHT22;25670;44.782;10.356;2024-03-23T01:13:29;10.70;1.00
39983;DHT22;25670;44.782;10.356;2024-03-23T01:15:56;10.80;1.00
39983;DHT22;25670;44.782;10.356;2024-03-23T01:18:23;12.30;1.00
39983;DHT22;25670;44.782;10.356;2024-03-23T01:20:49;11.10;1.00
39983;DHT22;25670;44.782;10.356;2024-03-23T01:23:16;12.10;99.90
39983;DHT22;25670;44.782;10.356;2024-03-23T01:25:42;11.10;99.90
39983;DHT22;25670;44.782;10.356;2024-03-23T01:28:08;11.30;99.90
39983;DHT22;25670;44.782;10.356;2024-03-23T01:30:35;11.20;99.90
39983;DHT22;25670;44.782;10.356;2024-03-23T01:33:02;11.40;99.90
39983;DHT22;25670;44.782;10.356;2024-03-23T01:35:29;11.30;99.90
39983;DHT22;25670;44.782;10.356;2024-03-23T01:37:55;11.40;99.90
39983;DHT22;25670;44.782;10.356;2024-03-23T01:40:22;11.40;99.90
39983;DHT22;25670;44.782;10.356;2024-03-23T01:42:58;11.40;99.90
39983;DHT22;25670;44.782;10.356;2024-03-23T01:47:54;11.30;99.90
39983;DHT22;25670;44.782;10.356;2024-03-23T02:00:07;11.10;99.90
39983;DHT22;25670;44.782;10.356;2024-03-23T02:02:43;11.20;99.90
39983;DHT22;25670;44.782;10.356;2024-03-23T02:05:11;11.60;99.90
39983;DHT22;25670;44.782;10.356;2024-03-23T02:07:41;11.10;99.90
39983;DHT22;25670;44.782;10.356;2024-03-23T02:10:10;11.30;99.90
39983;DHT22;25670;44.782;10.356;2024-03-23T02:12:37;11.30;99.90
39983;DHT22;25670;44.782;10.356;2024-03-23T02:17:32;11.30;99.90
39983;DHT22;25670;44.782;10.356;2024-03-23T02:19:59;10.30;99.90
39983;DHT22;25670;44.782;10.356;2024-03-23T02:22:25;11.40;99.90
39983;DHT22;25670;44.782;10.356;2024-03-23T02:27:18;11.50;99.90
39983;DHT22;25670;44.782;10.356;2024-03-23T02:29:44;11.50;99.90
39983;DHT22;25670;44.782;10.356;2024-03-23T02:32:10;12.20;99.90
39983;DHT22;25670;44.782;10.356;2024-03-23T02:34:36;11.60;99.90
39983;DHT22;25670;44.782;10.356;2024-03-23T02:37:02;11.70;91.00
39983;DHT22;25670;44.782;10.356;2024-03-23T02:39:35;11.70;44.00
39983;DHT22;25670;44.782;10.356;2024-03-23T02:42:02;13.40;41.10
39983;DHT22;25670;44.782;10.356;2024-03-23T02:44:28;11.70;49.20
39983;DHT22;25670;44.782;10.356;2024-03-23T02:46:54;11.70;18.50
39983;DHT22;25670;44.782;10.356;2024-03-23T02:49:20;11.70;1.00
39983;DHT22;25670;44.782;10.356;2024-03-23T02:51:47;11.70;1.00
39983;DHT22;25670;44.782;10.356;2024-03-23T02:54:14;11.70;1.00
39983;DHT22;25670;44.782;10.356;2024-03-23T02:56:40;11.70;1.00
39983;DHT22;25670;44.782;10.356;2024-03-23T03:01:33;11.40;18.20
39983;DHT22;25670;44.782;10.356;2024-03-23T03:04:00;11.30;41.50
39983;DHT22;25670;44.782;10.356;2024-03-23T03:11:20;11.40;1.00
39983;DHT22;25670;44.782;10.356;2024-03-23T03:13:46;11.50;99.90
39983;DHT22;25670;44.782;10.356;2024-03-23T03:16:12;11.60;99.90
39983;DHT22;25670;44.782;10.356;2024-03-23T03:18:39;11.70;99.90
39983;DHT22;25670;44.782;10.356;2024-03-23T03:21:07;11.60;99.90
39983;DHT22;25670;44.782;10.356;2024-03-23T03:23:40;11.50;99.90
39983;DHT22;25670;44.782;10.356;2024-03-23T03:26:06;11.50;99.90
39983;DHT22;25670;44.782;10.356;2024-03-23T03:28:33;11.40;99.90
39983;DHT22;25670;44.782;10.356;2024-03-23T03:30:59;11.50;99.90
39983;DHT22;25670;44.782;10.356;2024-03-23T03:33:29;13.30;99.90
39983;DHT22;25670;44.782;10.356;2024-03-23T03:35:55;11.50;99.90
39983;DHT22;25670;44.782;10.356;2024-03-23T03:38:21;11.50;99.90
39983;DHT22;25670;44.782;10.356;2024-03-23T03:40:47;11.50;99.90
39983;DHT22;25670;44.782;10.356;2024-03-23T03:43:14;11.60;17.10
39983;DHT22;25670;44.782;10.356;2024-03-23T03:48:07;11.80;99.90
39983;DHT22;25670;44.782;10.356;2024-03-23T03:50:33;11.90;99.90
39983;DHT22;25670;44.782;10.356;2024-03-23T03:52:59;11.90;99.90
39983;DHT22;25670;44.782;10.356;2024-03-23T03:55:25;11.80;99.90
39983;DHT22;25670;44.782;10.356;2024-03-23T03:57:52;11.50;99.90
39983;DHT22;25670;44.782;10.356;2024-03-23T04:00:18;11.40;99.90
39983;DHT22;25670;44.782;10.356;2024-03-23T04:02:44;10.90;11.30
39983;DHT22;25670;44.782;10.356;2024-03-23T04:05:10;10.60;99.90
39983;DHT22;25670;44.782;10.356;2024-03-23T04:07:36;10.20;99.90
39983;DHT22;25670;44.782;10.356;2024-03-23T04:10:03;9.80;99.90
39983;DHT22;25670;44.782;10.356;2024-03-23T04:15:00;9.40;99.90
39983;DHT22;25670;44.782;10.356;2024-03-23T04:17:26;9.20;99.90
39983;DHT22;25670;44.782;10.356;2024-03-23T04:19:58;9.10;1.00
39983;DHT22;25670;44.782;10.356;2024-03-23T04:24:56;8.70;1.00
39983;DHT22;25670;44.782;10.356;2024-03-23T04:27:25;9.90;1.00
39983;DHT22;25670;44.782;10.356;2024-03-23T04:34:45;8.50;1.00
39983;DHT22;25670;44.782;10.356;2024-03-23T04:37:11;8.40;1.00
39983;DHT22;25670;44.782;10.356;2024-03-23T04:39:38;9.80;1.00
39983;DHT22;25670;44.782;10.356;2024-03-23T04:42:05;9.10;1.00
39983;DHT22;25670;44.782;10.356;2024-03-23T04:49:24;8.10;10.10
39983;DHT22;25670;44.782;10.356;2024-03-23T04:54:18;8.10;29.10
39983;DHT22;25670;44.782;10.356;2024-03-23T04:59:10;8.20;18.10
39983;DHT22;25670;44.782;10.356;2024-03-23T05:01:37;9.90;17.70
39983;DHT22;25670;44.782;10.356;2024-03-23T05:06:35;8.60;6.20
39983;DHT22;25670;44.782;10.356;2024-03-23T05:09:02;8.40;23.10
39983;DHT22;25670;44.782;10.356;2024-03-23T05:11:33;8.20;15.00
39983;DHT22;25670;44.782;10.356;2024-03-23T05:13:59;8.10;1.00
39983;DHT22;25670;44.782;10.356;2024-03-23T05:16:26;8.10;32.10
39983;DHT22;25670;44.782;10.356;2024-03-23T05:18:52;8.60;24.60
39983;DHT22;25670;44.782;10.356;2024-03-23T05:21:19;9.80;34.70
39983;DHT22;25670;44.782;10.356;2024-03-23T05:23:45;8.20;13.00
39983;DHT22;25670;44.782;10.356;2024-03-23T05:31:04;8.30;1.00
39983;DHT22;25670;44.782;10.356;2024-03-23T05:33:30;8.30;4.20
39983;DHT22;25670;44.782;10.356;2024-03-23T05:36:01;8.10;14.20
39983;DHT22;25670;44.782;10.356;2024-03-23T05:38:27;8.20;8.40
39983;DHT22;25670;44.782;10.356;2024-03-23T05:40:58;8.20;13.60
39983;DHT22;25670;44.782;10.356;2024-03-23T05:43:25;8.20;5.40
39983;DHT22;25670;44.782;10.356;2024-03-23T05:45:55;8.10;1.00
39983;DHT22;25670;44.782;10.356;2024-03-23T05:48:21;8.50;1.00
39983;DHT22;25670;44.782;10.356;2024-03-23T05:50:49;8.60;1.00
39983;DHT22;25670;44.782;10.356;2024-03-23T05:53:16;8.60;1.00
39983;DHT22;25670;44.782;10.356;2024-03-23T05:55:43;8.60;1.00
39983;DHT22;25670;44.782;10.356;2024-03-23T05:58:10;8.60;1.00
39983;DHT22;25670;44.782;10.356;2024-03-23T06:00:36;8.70;1.00
39983;DHT22;25670;44.782;10.356;2024-03-23T06:03:03;8.80;1.00
39983;DHT22;25670;44.782;10.356;2024-03-23T06:05:29;8.80;1.00
39983;DHT22;25670;44.782;10.356;2024-03-23T06:15:21;8.80;1.00
39983;DHT22;25670;44.782;10.356;2024-03-23T06:34:55;9.60;1.00
39983;DHT22;25670;44.782;10.356;2024-03-23T06:37:22;9.70;1.00
39983;DHT22;25670;44.782;10.356;2024-03-23T06:39:48;9.70;1.00
39983;DHT22;25670;44.782;10.356;2024-03-23T06:42:15;9.70;1.00
39983;DHT22;25670;44.782;10.356;2024-03-23T06:44:43;9.80;1.00
39983;DHT22;25670;44.782;10.356;2024-03-23T06:47:10;9.80;1.00
39983;DHT22;25670;44.782;10.356;2024-03-23T06:49:37;10.10;1.00
39983;DHT22;25670;44.782;10.356;2024-03-23T06:52:03;10.10;1.00
39983;DHT22;25670;44.782;10.356;2024-03-23T06:54:30;10.20;99.90
39983;DHT22;25670;44.782;10.356;2024-03-23T06:56:57;10.30;1.00
39983;DHT22;25670;44.782;10.356;2024-03-23T06:59:23;11.10;99.90
39983;DHT22;25670;44.782;10.356;2024-03-23T07:01:50;10.50;99.90
39983;DHT22;25670;44.782;10.356;2024-03-23T07:04:17;10.70;99.90
39983;DHT22;25670;44.782;10.356;2024-03-23T07:06:45;10.80;99.90
39983;DHT22;25670;44.782;10.356;2024-03-23T07:09:12;11.00;99.90
39983;DHT22;25670;44.782;10.356;2024-03-23T07:11:38;11.20;99.90
39983;DHT22;25670;44.782;10.356;2024-03-23T07:14:05;11.40;99.90
39983;DHT22;25670;44.782;10.356;2024-03-23T07:16:32;11.60;99.90
39983;DHT22;25670;44.782;10.356;2024-03-23T07:18:58;11.80;99.90
39983;DHT22;25670;44.782;10.356;2024-03-23T07:21:25;12.30;99.90
39983;DHT22;25670;44.782;10.356;2024-03-23T07:23:51;12.20;99.90
39983;DHT22;25670;44.782;10.356;2024-03-23T07:26:18;12.40;53.30
39983;DHT22;25670;44.782;10.356;2024-03-23T07:28:45;12.60;1.00
39983;DHT22;25670;44.782;10.356;2024-03-23T07:31:15;12.80;1.00
39983;DHT22;25670;44.782;10.356;2024-03-23T07:33:45;12.90;99.90
39983;DHT22;25670;44.782;10.356;2024-03-23T07:36:12;13.00;99.90
39983;DHT22;25670;44.782;10.356;2024-03-23T07:38:42;13.20;99.90
39983;DHT22;25670;44.782;10.356;2024-03-23T07:41:19;13.30;33.30
39983;DHT22;25670;44.782;10.356;2024-03-23T07:43:47;13.50;1.00
39983;DHT22;25670;44.782;10.356;2024-03-23T07:46:15;13.80;1.00
39983;DHT22;25670;44.782;10.356;2024-03-23T07:48:42;13.90;1.00
39983;DHT22;25670;44.782;10.356;2024-03-23T07:51:15;14.10;91.00
39983;DHT22;25670;44.782;10.356;2024-03-23T07:53:44;14.30;99.90
39983;DHT22;25670;44.782;10.356;2024-03-23T07:56:11;14.70;99.90
39983;DHT22;25670;44.782;10.356;2024-03-23T07:58:39;15.00;99.90
39983;DHT22;25670;44.782;10.356;2024-03-23T08:01:13;15.60;99.90
39983;DHT22;25670;44.782;10.356;2024-03-23T08:03:44;15.90;99.90
39983;DHT22;25670;44.782;10.356;2024-03-23T08:06:13;16.20;99.90
39983;DHT22;25670;44.782;10.356;2024-03-23T08:08:41;16.50;99.90
39983;DHT22;25670;44.782;10.356;2024-03-23T08:11:08;16.70;33.70
39983;DHT22;25670;44.782;10.356;2024-03-23T08:13:35;16.80;99.90
39983;DHT22;25670;44.782;10.356;2024-03-23T08:16:03;16.90;99.90
39983;DHT22;25670;44.782;10.356;2024-03-23T08:18:31;17.00;99.90
39983;DHT22;25670;44.782;10.356;2024-03-23T08:21:02;17.10;99.90
39983;DHT22;25670;44.782;10.356;2024-03-23T08:23:30;17.10;99.90
39983;DHT22;25670;44.782;10.356;2024-03-23T08:25:58;17.20;1.00
39983;DHT22;25670;44.782;10.356;2024-03-23T08:28:25;17.30;99.90
39983;DHT22;25670;44.782;10.356;2024-03-23T08:30:56;17.30;99.90
39983;DHT22;25670;44.782;10.356;2024-03-23T08:33:23;17.30;99.90
39983;DHT22;25670;44.782;10.356;2024-03-23T08:38:21;17.50;99.90
39983;DHT22;25670;44.782;10.356;2024-03-23T08:40:53;17.70;99.90
39983;DHT22;25670;44.782;10.356;2024-03-23T08:43:22;17.80;99.90
39983;DHT22;25670;44.782;10.356;2024-03-23T08:45:48;17.80;35.40
39983;DHT22;25670;44.782;10.356;2024-03-23T08:48:15;17.70;69.40
39983;DHT22;25670;44.782;10.356;2024-03-23T08:50:42;17.80;63.20
39983;DHT22;25670;44.782;10.356;2024-03-23T08:53:09;17.80;99.90
39983;DHT22;25670;44.782;10.356;2024-03-23T08:55:35;17.90;1.60
39983;DHT22;25670;44.782;10.356;2024-03-23T08:58:01;17.90;1.00
39983;DHT22;25670;44.782;10.356;2024-03-23T09:00:28;18.00;1.00
39983;DHT22;25670;44.782;10.356;2024-03-23T09:02:54;17.90;99.90
39983;DHT22;25670;44.782;10.356;2024-03-23T09:05:21;18.00;1.00
39983;DHT22;25670;44.782;10.356;2024-03-23T09:07:48;18.10;21.70
39983;DHT22;25670;44.782;10.356;2024-03-23T09:10:14;18.20;1.00
39983;DHT22;25670;44.782;10.356;2024-03-23T09:12:41;18.20;99.90
39983;DHT22;25670;44.782;10.356;2024-03-23T09:15:07;18.20;1.00
39983;DHT22;25670;44.782;10.356;2024-03-23T09:17:34;18.10;99.90
39983;DHT22;25670;44.782;10.356;2024-03-23T09:20:00;18.00;99.90
39983;DHT22;25670;44.782;10.356;2024-03-23T09:22:26;17.90;99.90
39983;DHT22;25670;44.782;10.356;2024-03-23T09:24:53;17.80;99.90
39983;DHT22;25670;44.782;10.356;2024-03-23T09:27:19;17.70;1.00
39983;DHT22;25670;44.782;10.356;2024-03-23T09:29:46;17.70;99.90
39983;DHT22;25670;44.782;10.356;2024-03-23T09:32:12;17.70;99.90
39983;DHT22;25670;44.782;10.356;2024-03-23T09:34:38;17.70;99.90
39983;DHT22;25670;44.782;10.356;2024-03-23T09:37:05;17.70;99.90
39983;DHT22;25670;44.782;10.356;2024-03-23T09:39:31;17.70;99.90
39983;DHT22;25670;44.782;10.356;2024-03-23T09:41:58;17.60;1.90
39983;DHT22;25670;44.782;10.356;2024-03-23T09:44:24;17.60;1.00
39983;DHT22;25670;44.782;10.356;2024-03-23T09:46:52;17.70;99.90
39983;DHT22;25670;44.782;10.356;2024-03-23T09:49:19;17.70;1.00
39983;DHT22;25670;44.782;10.356;2024-03-23T09:51:45;17.70;32.40
39983;DHT22;25670;44.782;10.356;2024-03-23T09:54:11;17.80;99.90
39983;DHT22;25670;44.782;10.356;2024-03-23T09:56:38;17.80;99.90
39983;DHT22;25670;44.782;10.356;2024-03-23T09:59:05;17.80;56.50
39983;DHT22;25670;44.782;10.356;2024-03-23T10:01:32;17.80;99.90
39983;DHT22;25670;44.782;10.356;2024-03-23T10:03:59;17.70;99.90
39983;DHT22;25670;44.782;10.356;2024-03-23T10:06:25;17.80;99.90
39983;DHT22;25670;44.782;10.356;2024-03-23T10:08:52;17.80;99.90
39983;DHT22;25670;44.782;10.356;2024-03-23T10:11:20;17.90;1.00
39983;DHT22;25670;44.782;10.356;2024-03-23T10:13:47;18.00;99.90
39983;DHT22;25670;44.782;10.356;2024-03-23T10:16:23;18.00;99.90
39983;DHT22;25670;44.782;10.356;2024-03-23T10:18:50;18.00;1.00
39983;DHT22;25670;44.782;10.356;2024-03-23T10:21:17;17.80;99.90
39983;DHT22;25670;44.782;10.356;2024-03-23T10:23:44;17.90;99.90
39983;DHT22;25670;44.782;10.356;2024-03-23T10:29:01;17.80;99.90
39983;DHT22;25670;44.782;10.356;2024-03-23T10:31:29;18.10;99.90
39983;DHT22;25670;44.782;10.356;2024-03-23T10:33:55;18.30;99.90
39983;DHT22;25670;44.782;10.356;2024-03-23T10:36:22;18.30;99.90
39983;DHT22;25670;44.782;10.356;2024-03-23T10:38:54;18.50;1.00
39983;DHT22;25670;44.782;10.356;2024-03-23T10:41:20;18.60;99.90
39983;DHT22;25670;44.782;10.356;2024-03-23T10:43:48;18.70;73.60
39983;DHT22;25670;44.782;10.356;2024-03-23T10:46:15;18.70;36.40
39983;DHT22;25670;44.782;10.356;2024-03-23T10:48:42;18.70;1.00
39983;DHT22;25670;44.782;10.356;2024-03-23T10:51:10;18.80;98.90
39983;DHT22;25670;44.782;10.356;2024-03-23T10:53:37;18.90;1.00
39983;DHT22;25670;44.782;10.356;2024-03-23T10:56:04;19.20;1.00
39983;DHT22;25670;44.782;10.356;2024-03-23T10:58:37;18.90;10.30
39983;DHT22;25670;44.782;10.356;2024-03-23T11:01:04;19.30;1.00
39983;DHT22;25670;44.782;10.356;2024-03-23T11:03:35;19.30;99.90
39983;DHT22;25670;44.782;10.356;2024-03-23T11:06:07;19.40;99.90
39983;DHT22;25670;44.782;10.356;2024-03-23T11:08:40;19.10;99.90
39983;DHT22;25670;44.782;10.356;2024-03-23T11:11:14;19.20;98.20
39983;DHT22;25670;44.782;10.356;2024-03-23T11:13:41;19.30;99.90
39983;DHT22;25670;44.782;10.356;2024-03-23T11:16:33;19.30;1.00
39983;DHT22;25670;44.782;10.356;2024-03-23T11:19:33;19.20;10.10
39983;DHT22;25670;44.782;10.356;2024-03-23T11:22:00;19.00;99.90
39983;DHT22;25670;44.782;10.356;2024-03-23T11:24:27;19.00;95.80
39983;DHT22;25670;44.782;10.356;2024-03-23T11:26:54;19.00;99.90
39983;DHT22;25670;44.782;10.356;2024-03-23T11:29:21;18.20;14.90
39983;DHT22;25670;44.782;10.356;2024-03-23T11:31:52;19.00;1.00
39983;DHT22;25670;44.782;10.356;2024-03-23T11:34:22;19.00;50.70
39983;DHT22;25670;44.782;10.356;2024-03-23T11:36:48;18.80;99.90
39983;DHT22;25670;44.782;10.356;2024-03-23T11:39:17;18.90;1.00
39983;DHT22;25670;44.782;10.356;2024-03-23T11:41:50;18.80;99.90
39983;DHT22;25670;44.782;10.356;2024-03-23T11:44:21;18.90;1.00
39983;DHT22;25670;44.782;10.356;2024-03-23T11:46:50;19.10;1.00
39983;DHT22;25670;44.782;10.356;2024-03-23T11:49:29;19.20;1.00
39983;DHT22;25670;44.782;10.356;2024-03-23T11:51:56;19.50;1.00
39983;DHT22;25670;44.782;10.356;2024-03-23T11:54:24;19.40;99.90
39983;DHT22;25670;44.782;10.356;2024-03-23T11:57:09;19.60;99.90
39983;DHT22;25670;44.782;10.356;2024-03-23T11:59:40;19.60;99.90
39983;DHT22;25670;44.782;10.356;2024-03-23T12:02:08;19.90;99.90
39983;DHT22;25670;44.782;10.356;2024-03-23T12:04:37;20.10;97.60
39983;DHT22;25670;44.782;10.356;2024-03-23T12:07:18;20.00;99.90
39983;DHT22;25670;44.782;10.356;2024-03-23T12:09:46;20.00;62.30
39983;DHT22;25670;44.782;10.356;2024-03-23T12:12:17;19.90;99.90
39983;DHT22;25670;44.782;10.356;2024-03-23T12:14:44;19.80;99.90
39983;DHT22;25670;44.782;10.356;2024-03-23T12:17:15;19.80;99.90
39983;DHT22;25670;44.782;10.356;2024-03-23T12:19:43;19.70;99.90
39983;DHT22;25670;44.782;10.356;2024-03-23T12:22:11;19.80;99.90
39983;DHT22;25670;44.782;10.356;2024-03-23T12:24:38;19.50;99.90
39983;DHT22;25670;44.782;10.356;2024-03-23T12:27:11;19.60;99.90
39983;DHT22;25670;44.782;10.356;2024-03-23T12:29:38;19.90;99.90
39983;DHT22;25670;44.782;10.356;2024-03-23T12:32:05;20.60;99.90
39983;DHT22;25670;44.782;10.356;2024-03-23T12:34:33;21.50;1.00
39983;DHT22;25670;44.782;10.356;2024-03-23T12:36:59;22.20;99.90
39983;DHT22;25670;44.782;10.356;2024-03-23T12:39:26;22.70;99.90
39983;DHT22;25670;44.782;10.356;2024-03-23T12:41:53;22.50;26.80
39983;DHT22;25670;44.782;10.356;2024-03-23T12:44:19;22.20;1.00
39983;DHT22;25670;44.782;10.356;2024-03-23T12:46:47;22.30;1.00
39983;DHT22;25670;44.782;10.356;2024-03-23T12:49:13;21.90;1.00
39983;DHT22;25670;44.782;10.356;2024-03-23T12:51:48;22.30;1.00
39983;DHT22;25670;44.782;10.356;2024-03-23T12:54:19;22.30;99.90
39983;DHT22;25670;44.782;10.356;2024-03-23T12:56:46;22.50;99.90
39983;DHT22;25670;44.782;10.356;2024-03-23T12:59:12;22.70;99.90
39983;DHT22;25670;44.782;10.356;2024-03-23T13:01:40;22.70;99.90
39983;DHT22;25670;44.782;10.356;2024-03-23T13:04:06;23.20;99.90
39983;DHT22;25670;44.782;10.356;2024-03-23T13:06:34;23.60;99.90
39983;DHT22;25670;44.782;10.356;2024-03-23T13:09:01;23.70;99.90
39983;DHT22;25670;44.782;10.356;2024-03-23T13:11:28;23.90;99.90
39983;DHT22;25670;44.782;10.356;2024-03-23T13:13:54;23.80;99.90
39983;DHT22;25670;44.782;10.356;2024-03-23T13:16:21;23.20;99.90
39983;DHT22;25670;44.782;10.356;2024-03-23T13:18:48;23.00;99.90
39983;DHT22;25670;44.782;10.356;2024-03-23T13:21:14;23.40;99.90
39983;DHT22;25670;44.782;10.356;2024-03-23T13:23:41;23.90;99.90
39983;DHT22;25670;44.782;10.356;2024-03-23T13:26:08;24.00;99.90
39983;DHT22;25670;44.782;10.356;2024-03-23T13:28:35;24.00;99.90
39983;DHT22;25670;44.782;10.356;2024-03-23T13:31:04;23.80;99.90
39983;DHT22;25670;44.782;10.356;2024-03-23T13:33:30;23.60;99.90
39983;DHT22;25670;44.782;10.356;2024-03-23T13:35:59;23.60;99.90
39983;DHT22;25670;44.782;10.356;2024-03-23T13:38:25;23.80;99.90
39983;DHT22;25670;44.782;10.356;2024-03-23T13:40:56;23.80;97.90
39983;DHT22;25670;44.782;10.356;2024-03-23T13:43:24;23.80;99.90
39983;DHT22;25670;44.782;10.356;2024-03-23T13:45:59;23.60;99.90
39983;DHT22;25670;44.782;10.356;2024-03-23T13:48:27;24.20;91.70
39983;DHT22;25670;44.782;10.356;2024-03-23T13:51:03;23.90;91.90
39983;DHT22;25670;44.782;10.356;2024-03-23T13:53:31;24.00;75.70
39983;DHT22;25670;44.782;10.356;2024-03-23T13:55:58;23.60;70.90
39983;DHT22;25670;44.782;10.356;2024-03-23T13:58:24;23.20;85.10
39983;DHT22;25670;44.782;10.356;2024-03-23T14:00:52;22.80;99.90
39983;DHT22;25670;44.782;10.356;2024-03-23T14:03:18;22.50;99.90
39983;DHT22;25670;44.782;10.356;2024-03-23T14:05:44;22.50;99.90
39983;DHT22;25670;44.782;10.356;2024-03-23T14:08:11;22.40;99.90
39983;DHT22;25670;44.782;10.356;2024-03-23T14:10:41;22.50;99.90
39983;DHT22;25670;44.782;10.356;2024-03-23T14:13:07;22.70;99.90
39983;DHT22;25670;44.782;10.356;2024-03-23T14:15:34;22.60;99.90
39983;DHT22;25670;44.782;10.356;2024-03-23T14:18:02;23.20;99.90
39983;DHT22;25670;44.782;10.356;2024-03-23T14:20:30;22.80;99.90
39983;DHT22;25670;44.782;10.356;2024-03-23T14:22:56;22.80;99.90
39983;DHT22;25670;44.782;10.356;2024-03-23T14:25:22;22.30;99.90
39983;DHT22;25670;44.782;10.356;2024-03-23T14:27:53;22.20;99.90
39983;DHT22;25670;44.782;10.356;2024-03-23T14:30:19;22.60;99.90
39983;DHT22;25670;44.782;10.356;2024-03-23T14:32:45;22.30;99.90
39983;DHT22;25670;44.782;10.356;2024-03-23T14:35:12;22.10;99.90
39983;DHT22;25670;44.782;10.356;2024-03-23T14:37:38;22.50;99.90
39983;DHT22;25670;44.782;10.356;2024-03-23T14:40:06;22.50;99.90
39983;DHT22;25670;44.782;10.356;2024-03-23T14:42:33;21.70;99.90
39983;DHT22;25670;44.782;10.356;2024-03-23T14:44:59;21.80;99.90
39983;DHT22;25670;44.782;10.356;2024-03-23T14:47:26;21.80;99.90
39983;DHT22;25670;44.782;10.356;2024-03-23T14:49:52;21.60;99.90
39983;DHT22;25670;44.782;10.356;2024-03-23T14:52:19;21.90;99.90
39983;DHT22;25670;44.782;10.356;2024-03-23T14:54:46;22.10;99.90
39983;DHT22;25670;44.782;10.356;2024-03-23T14:57:13;22.50;99.90
39983;DHT22;25670;44.782;10.356;2024-03-23T14:59:39;22.00;99.90
39983;DHT22;25670;44.782;10.356;2024-03-23T15:02:09;21.80;99.90
39983;DHT22;25670;44.782;10.356;2024-03-23T15:04:36;21.50;99.90
39983;DHT22;25670;44.782;10.356;2024-03-23T15:07:02;21.70;99.90
39983;DHT22;25670;44.782;10.356;2024-03-23T15:09:29;21.80;99.90
39983;DHT22;25670;44.782;10.356;2024-03-23T15:11:55;22.10;99.90
39983;DHT22;25670;44.782;10.356;2024-03-23T15:14:23;21.60;99.90
39983;DHT22;25670;44.782;10.356;2024-03-23T15:16:50;21.70;99.90
39983;DHT22;25670;44.782;10.356;2024-03-23T15:19:17;21.90;99.90
39983;DHT22;25670;44.782;10.356;2024-03-23T15:21:46;21.90;99.90
39983;DHT22;25670;44.782;10.356;2024-03-23T15:24:12;21.90;99.90
39983;DHT22;25670;44.782;10.356;2024-03-23T15:26:38;21.80;99.90
39983;DHT22;25670;44.782;10.356;2024-03-23T15:29:05;21.90;99.90
39983;DHT22;25670;44.782;10.356;2024-03-23T15:31:43;21.50;99.90
39983;DHT22;25670;44.782;10.356;2024-03-23T15:34:09;22.00;99.90
39983;DHT22;25670;44.782;10.356;2024-03-23T15:36:37;21.60;99.90
39983;DHT22;25670;44.782;10.356;2024-03-23T15:39:07;21.60;99.90
39983;DHT22;25670;44.782;10.356;2024-03-23T15:41:33;21.60;99.90
39983;DHT22;25670;44.782;10.356;2024-03-23T15:44:02;21.60;99.90
39983;DHT22;25670;44.782;10.356;2024-03-23T15:46:28;21.70;99.90
39983;DHT22;25670;44.782;10.356;2024-03-23T15:48:54;21.60;99.90
39983;DHT22;25670;44.782;10.356;2024-03-23T15:51:21;21.40;99.90
39983;DHT22;25670;44.782;10.356;2024-03-23T15:53:48;21.60;99.90
39983;DHT22;25670;44.782;10.356;2024-03-23T15:56:18;21.60;99.90
39983;DHT22;25670;44.782;10.356;2024-03-23T15:58:44;21.80;99.90
39983;DHT22;25670;44.782;10.356;2024-03-23T16:01:12;21.60;99.90
39983;DHT22;25670;44.782;10.356;2024-03-23T16:03:38;21.60;99.90
39983;DHT22;25670;44.782;10.356;2024-03-23T16:06:06;21.70;99.90
39983;DHT22;25670;44.782;10.356;2024-03-23T16:08:35;21.90;99.90
39983;DHT22;25670;44.782;10.356;2024-03-23T16:11:03;21.40;99.90
39983;DHT22;25670;44.782;10.356;2024-03-23T16:13:31;21.60;99.90
39983;DHT22;25670;44.782;10.356;2024-03-23T16:15:58;21.40;99.90
39983;DHT22;25670;44.782;10.356;2024-03-23T16:18:26;21.60;99.90
39983;DHT22;25670;44.782;10.356;2024-03-23T16:20:54;21.30;99.90
39983;DHT22;25670;44.782;10.356;2024-03-23T16:23:20;21.10;99.90
39983;DHT22;25670;44.782;10.356;2024-03-23T16:25:51;21.10;99.90
39983;DHT22;25670;44.782;10.356;2024-03-23T16:28:35;21.00;99.90
39983;DHT22;25670;44.782;10.356;2024-03-23T16:31:07;21.50;99.90
39983;DHT22;25670;44.782;10.356;2024-03-23T16:33:35;21.50;99.90
39983;DHT22;25670;44.782;10.356;2024-03-23T16:38:33;21.70;99.90
39983;DHT22;25670;44.782;10.356;2024-03-23T16:41:05;21.70;99.90
39983;DHT22;25670;44.782;10.356;2024-03-23T16:43:36;21.40;99.90
39983;DHT22;25670;44.782;10.356;2024-03-23T16:46:10;21.30;99.90
39983;DHT22;25670;44.782;10.356;2024-03-23T16:48:41;20.80;99.90
39983;DHT22;25670;44.782;10.356;2024-03-23T16:51:09;20.70;1.00
39983;DHT22;25670;44.782;10.356;2024-03-23T16:53:36;20.40;1.00
39983;DHT22;25670;44.782;10.356;2024-03-23T16:56:07;19.90;99.90
39983;DHT22;25670;44.782;10.356;2024-03-23T16:58:37;19.80;99.90
39983;DHT22;25670;44.782;10.356;2024-03-23T17:01:09;19.80;99.90
39983;DHT22;25670;44.782;10.356;2024-03-23T17:03:38;19.40;99.90
39983;DHT22;25670;44.782;10.356;2024-03-23T17:06:08;19.20;1.00
39983;DHT22;25670;44.782;10.356;2024-03-23T17:08:36;19.00;99.90
39983;DHT22;25670;44.782;10.356;2024-03-23T17:11:03;18.90;99.90
39983;DHT22;25670;44.782;10.356;2024-03-23T17:13:33;18.90;1.00
39983;DHT22;25670;44.782;10.356;2024-03-23T17:16:00;18.80;1.00
39983;DHT22;25670;44.782;10.356;2024-03-23T17:18:29;18.50;96.40
39983;DHT22;25670;44.782;10.356;2024-03-23T17:20:56;18.40;99.90
39983;DHT22;25670;44.782;10.356;2024-03-23T17:23:28;18.20;1.00
39983;DHT22;25670;44.782;10.356;2024-03-23T17:25:56;17.90;99.90
39983;DHT22;25670;44.782;10.356;2024-03-23T17:28:23;17.70;99.90
39983;DHT22;25670;44.782;10.356;2024-03-23T17:30:50;17.30;99.90
39983;DHT22;25670;44.782;10.356;2024-03-23T17:33:18;17.20;99.90
39983;DHT22;25670;44.782;10.356;2024-03-23T17:35:45;17.10;1.00
39983;DHT22;25670;44.782;10.356;2024-03-23T17:38:12;17.20;99.90
39983;DHT22;25670;44.782;10.356;2024-03-23T17:40:40;16.80;99.90
39983;DHT22;25670;44.782;10.356;2024-03-23T17:43:07;16.80;99.90
39983;DHT22;25670;44.782;10.356;2024-03-23T17:45:34;16.70;99.90
39983;DHT22;25670;44.782;10.356;2024-03-23T17:48:03;16.60;99.90